Flight Track Log - Related Links

Times and Time Zones

All times are in EDT time to prevent confusion due to time zone crossing. See the AAL1326 flight status page for this flight to view local times or setup timezone preferences in your user account.

Time Position Orientation Groundspeed Altitude Reporting Facility
EDT Latitude Longitude Course Direction KTS MPH feet Rate Location/Type
Sun 09:45:36 AM 36.1590 -95.8800 174° South 172 198 2,500  Level FlightAware ADS-B
Sun 09:45:50 AM 36.1470 -95.8770 169° South 198 228 2,700 1,200 Climbing FlightAware ADS-B
Sun 09:45:56 AM 36.1400 -95.8730 155° Southeast 210 242 2,900 1,875 Climbing FlightAware ADS-B
Sun 09:46:06 AM 36.1330 -95.8630 131° Southeast 233 268 3,200 1,714 Climbing FlightAware ADS-B
Sun 09:46:10 AM 36.1310 -95.8570 112° Southeast 246 283 3,300 1,636 Climbing FlightAware ADS-B
Sun 09:46:17 AM 36.1290 -95.8480 105° East 260 299 3,500 1,636 Climbing FlightAware ADS-B
Sun 09:46:21 AM 36.1290 -95.8440 90° East 267 307 3,600 3,000 Climbing FlightAware ADS-B
Sun 09:46:41 AM 36.1350 -95.8170 75° East 274 315 4,700 3,300 Climbing FlightAware ADS-B
Sun 09:47:01 AM 36.1510 -95.7860 57° Northeast 284 327 5,800 3,067 Climbing FlightAware ADS-B
Sun 09:47:26 AM 36.1680 -95.7530 57° Northeast 294 338 7,000 3,000 Climbing FlightAware ADS-B
Sun 09:47:41 AM 36.1800 -95.7290 58° Northeast 299 344 7,800 3,150 Climbing FlightAware ADS-B
Sun 09:48:06 AM 36.1980 -95.6940 57° Northeast 305 351 9,100 2,909 Climbing FlightAware ADS-B
Sun 09:48:47 AM 36.2280 -95.6340 58° Northeast 325 374 11,000 2,757 Climbing FlightAware ADS-B
Sun 09:49:20 AM 36.2590 -95.5730 58° Northeast 354 407 12,500 2,959 Climbing FlightAware ADS-B
Sun 09:50:00 AM 36.2930 -95.5050 58° Northeast 368 423 14,600 3,042 Climbing FlightAware ADS-B
Sun 09:50:31 AM 36.3200 -95.4520 58° Northeast 381 438 16,100 3,231 Climbing FlightAware ADS-B
Sun 09:51:05 AM 36.3550 -95.3830 58° Northeast 390 449 18,100 3,086 Climbing FlightAware ADS-B
Sun 09:51:41 AM 36.3890 -95.3160 58° Northeast 404 465 19,700 2,704 Climbing FlightAware ADS-B
Sun 09:52:16 AM 36.4240 -95.2450 58° Northeast 415 478 21,300 2,609 Climbing FlightAware ADS-B
Sun 09:52:50 AM 36.4580 -95.1770 58° Northeast 425 489 22,700 2,486 Climbing FlightAware ADS-B
Sun 09:53:26 AM 36.4960 -95.1030 57° Northeast 433 498 24,200 2,486 Climbing FlightAware ADS-B
Sun 09:54:00 AM 36.5350 -95.0270 57° Northeast 439 505 25,600 2,261 Climbing FlightAware ADS-B
Sun 09:54:35 AM 36.5820 -94.9610 48° Northeast 442 509 26,800 2,074 Climbing FlightAware ADS-B
Sun 09:55:21 AM 36.6490 -94.8750 46° Northeast 452 520 28,400 1,976 Climbing FlightAware ADS-B
Sun 09:55:57 AM 36.7030 -94.8040 46° Northeast 461 531 29,500 1,676 Climbing FlightAware ADS-B
Sun 09:56:29 AM 36.7500 -94.7440 46° Northeast 468 539 30,300 1,588 Climbing FlightAware ADS-B
Sun 09:57:05 AM 36.8050 -94.6720 46° Northeast 474 545 31,300 1,583 Climbing FlightAware ADS-B
Sun 09:57:41 AM 36.8590 -94.6010 46° Northeast 480 552 32,200 1,500 Climbing FlightAware ADS-B
Sun 09:58:17 AM 36.9140 -94.5290 46° Northeast 485 558 33,100 1,254 Climbing FlightAware ADS-B
Sun 09:58:48 AM 36.9620 -94.4660 46° Northeast 495 570 33,600 1,059 Climbing FlightAware ADS-B
Sun 09:59:25 AM 37.0230 -94.3860 46° Northeast 505 581 34,300 1,233 Climbing FlightAware ADS-B
Sun 10:00:01 AM 37.0800 -94.3100 47° Northeast 507 583 35,100 1,543 Climbing FlightAware ADS-B
Sun 10:00:35 AM 37.1340 -94.2380 47° Northeast 501 577 36,100 1,886 Climbing FlightAware ADS-B
Sun 10:01:11 AM 37.1920 -94.1620 46° Northeast 493 567 37,300 1,636 Climbing FlightAware ADS-B
Sun 10:01:41 AM 37.2390 -94.1000 46° Northeast 493 567 37,900 771 Climbing FlightAware ADS-B
Sun 10:02:21 AM 37.3010 -94.0170 47° Northeast 502 578 38,200 486 Climbing FlightAware ADS-B
Sun 10:02:55 AM 37.3560 -93.9440 47° Northeast 512 589 38,500 600 Climbing FlightAware ADS-B
Sun 10:03:31 AM 37.4150 -93.8650 47° Northeast 517 595 38,900 706 Climbing FlightAware ADS-B
Sun 10:04:03 AM 37.4670 -93.7940 47° Northeast 520 598 39,300 943 Climbing FlightAware ADS-B
Sun 10:04:41 AM 37.5300 -93.7100 47° Northeast 518 596 40,000 1,099 Climbing FlightAware ADS-B
Sun 10:05:14 AM 37.5820 -93.6410 46° Northeast 514 592 40,600 938 Climbing FlightAware ADS-B
Sun 10:05:45 AM 37.6340 -93.5700 47° Northeast 512 589 41,000 393 Climbing FlightAware ADS-B
Sun 10:06:15 AM 37.6820 -93.5050 47° Northeast 512 589 41,000  Level FlightAware ADS-B
Sun 10:06:52 AM 37.7390 -93.4280 47° Northeast 511 588 41,000  Level FlightAware ADS-B
Sun 10:07:27 AM 37.7970 -93.3500 47° Northeast 511 588 41,000  Level FlightAware ADS-B
Sun 10:08:03 AM 37.8550 -93.2690 48° Northeast 510 587 41,000  Level FlightAware ADS-B
Sun 10:08:39 AM 37.9130 -93.1910 47° Northeast 510 587 41,000  Level FlightAware ADS-B
Sun 10:09:13 AM 37.9670 -93.1170 47° Northeast 511 588 41,000  Level FlightAware ADS-B
Sun 10:09:47 AM 38.0230 -93.0400 47° Northeast 511 588 41,000  Level FlightAware ADS-B
Sun 10:10:25 AM 38.0800 -92.9610 47° Northeast 510 587 41,000  Level FlightAware ADS-B
Sun 10:10:57 AM 38.1320 -92.8890 47° Northeast 509 586 41,000  Level FlightAware ADS-B
Sun 10:11:33 AM 38.1910 -92.8080 47° Northeast 508 585 41,000  Level FlightAware ADS-B
Sun 10:12:06 AM 38.2280 -92.7560 48° Northeast 507 583 41,000  Level FlightAware ADS-B
Sun 10:12:44 AM 38.3000 -92.6550 48° Northeast 505 581 41,000  Level FlightAware ADS-B
Sun 10:13:17 AM 38.3540 -92.5810 47° Northeast 503 579 41,000  Level FlightAware ADS-B
Sun 10:13:54 AM 38.4130 -92.5000 47° Northeast 504 580 41,000  Level FlightAware ADS-B
Sun 10:14:40 AM 38.4780 -92.4110 47° Northeast 507 583 41,000  Level FlightAware ADS-B
Sun 10:15:14 AM 38.5410 -92.3210 48° Northeast 512 589 41,000  Level FlightAware ADS-B
Sun 10:15:51 AM 38.5990 -92.2380 48° Northeast 512 589 41,000  Level FlightAware ADS-B
Sun 10:16:26 AM 38.6540 -92.1610 48° Northeast 511 588 41,000  Level FlightAware ADS-B
Sun 10:17:03 AM 38.7120 -92.0780 48° Northeast 511 588 41,000  Level FlightAware ADS-B
Sun 10:17:35 AM 38.7640 -92.0050 48° Northeast 509 586 41,000  Level FlightAware ADS-B
Sun 10:18:07 AM 38.8140 -91.9340 48° Northeast 508 585 41,000  Level FlightAware ADS-B
Sun 10:18:47 AM 38.8770 -91.8450 48° Northeast 507 583 41,000  Level FlightAware ADS-B
Sun 10:19:23 AM 38.9330 -91.7640 48° Northeast 507 583 41,000  Level FlightAware ADS-B
Sun 10:19:56 AM 38.9850 -91.6900 48° Northeast 506 582 41,000  Level FlightAware ADS-B
Sun 10:20:31 AM 39.0380 -91.6130 48° Northeast 505 581 41,000  Level FlightAware ADS-B
Sun 10:21:03 AM 39.0890 -91.5390 48° Northeast 505 581 41,000  Level FlightAware ADS-B
Sun 10:21:40 AM 39.1460 -91.4570 48° Northeast 505 581 41,000  Level FlightAware ADS-B
Sun 10:22:14 AM 39.2000 -91.3790 48° Northeast 503 579 41,000  Level FlightAware ADS-B
Sun 10:22:51 AM 39.2560 -91.2970 49° Northeast 502 578 41,000  Level FlightAware ADS-B
Sun 10:23:27 AM 39.3110 -91.2170 48° Northeast 501 577 41,000  Level FlightAware ADS-B
Sun 10:24:00 AM 39.3580 -91.1500 48° Northeast 500 575 41,000  Level FlightAware ADS-B
Sun 10:24:37 AM 39.4190 -91.0610 48° Northeast 500 575 41,000  Level FlightAware ADS-B
Sun 10:25:08 AM 39.4660 -90.9920 49° Northeast 499 574 41,000 -448 Level FlightAware ADS-B
Sun 10:25:44 AM 39.5250 -90.9160 45° Northeast 502 578 40,500 -811 Descending FlightAware ADS-B
Sun 10:26:22 AM 39.5860 -90.8360 45° Northeast 496 571 40,000 -882 Descending FlightAware ADS-B
Sun 10:26:52 AM 39.6340 -90.7720 46° Northeast 495 570 39,500 -971 Descending FlightAware ADS-B
Sun 10:27:30 AM 39.6950 -90.6920 45° Northeast 501 577 38,900 -986 Descending FlightAware ADS-B
Sun 10:28:05 AM 39.7530 -90.6150 46° Northeast 502 578 38,300 -943 Descending FlightAware ADS-B
Sun 10:28:40 AM 39.8040 -90.5480 45° Northeast 493 567 37,800 -943 Descending FlightAware ADS-B
Sun 10:29:15 AM 39.8650 -90.4670 46° Northeast 495 570 37,200 -667 Descending FlightAware ADS-B
Sun 10:29:52 AM 39.9250 -90.3880 45° Northeast 494 568 37,000 -169 Descending FlightAware ADS-B
Sun 10:30:26 AM 39.9780 -90.3170 46° Northeast 493 567 37,000  Level FlightAware ADS-B
Sun 10:31:02 AM 40.0320 -90.2450 46° Northeast 492 566 37,000 -417 Level FlightAware ADS-B
Sun 10:31:38 AM 40.0880 -90.1700 46° Northeast 495 570 36,500 -904 Descending FlightAware ADS-B
Sun 10:32:15 AM 40.1520 -90.0850 45° Northeast 502 578 35,900 -957 Descending FlightAware ADS-B
Sun 10:32:47 AM 40.2030 -90.0170 46° Northeast 502 578 35,400 -1,015 Descending FlightAware ADS-B
Sun 10:33:20 AM 40.2550 -89.9460 46° Northeast 499 574 34,800 -1,183 Descending FlightAware ADS-B
Sun 10:33:58 AM 40.3150 -89.8640 46° Northeast 492 566 34,000 -1,378 Descending FlightAware ADS-B
Sun 10:34:34 AM 40.3750 -89.7900 43° Northeast 494 568 33,100 -1,588 Descending FlightAware ADS-B
Sun 10:35:06 AM 40.4300 -89.7260 42° Northeast 488 562 32,200 -2,435 Descending FlightAware ADS-B
Sun 10:35:43 AM 40.4940 -89.6540 41° Northeast 491 565 30,300 -2,750 Descending FlightAware ADS-B
Sun 10:36:18 AM 40.5520 -89.5870 41° Northeast 487 560 28,900 -2,636 Descending FlightAware ADS-B
Sun 10:36:49 AM 40.6070 -89.5250 41° Northeast 476 548 27,400 -2,507 Descending FlightAware ADS-B
Sun 10:37:25 AM 40.6640 -89.4590 41° Northeast 463 533 26,100 -2,137 Descending FlightAware ADS-B
Sun 10:38:02 AM 40.7220 -89.3920 41° Northeast 452 520 24,800 -2,113 Descending FlightAware ADS-B
Sun 10:38:36 AM 40.7800 -89.3250 41° Northeast 458 527 23,600 -1,944 Descending FlightAware ADS-B
Sun 10:39:13 AM 40.8330 -89.2600 43° Northeast 446 513 22,500 -1,886 Descending FlightAware ADS-B
Sun 10:39:46 AM 40.8850 -89.1980 42° Northeast 447 514 21,400 -2,057 Descending FlightAware ADS-B
Sun 10:40:23 AM 40.9420 -89.1300 42° Northeast 434 499 20,100 -2,000 Descending FlightAware ADS-B
Sun 10:40:55 AM 40.9870 -89.0750 43° Northeast 426 490 19,100 -2,000 Descending FlightAware ADS-B
Sun 10:41:32 AM 41.0430 -89.0090 42° Northeast 415 478 17,800 -2,137 Descending FlightAware ADS-B
Sun 10:42:08 AM 41.0940 -88.9480 42° Northeast 407 468 16,500 -2,083 Descending FlightAware ADS-B
Sun 10:42:44 AM 41.1420 -88.8890 43° Northeast 402 463 15,300 -2,000 Descending FlightAware ADS-B
Sun 10:43:20 AM 41.1920 -88.8290 42° Northeast 392 451 14,100 -1,941 Descending FlightAware ADS-B
Sun 10:43:52 AM 41.2340 -88.7780 42° Northeast 384 442 13,100 -1,938 Descending FlightAware ADS-B
Sun 10:44:25 AM 41.2780 -88.7240 43° Northeast 379 436 12,000 -1,714 Descending FlightAware ADS-B
Sun 10:45:02 AM 41.3250 -88.6680 42° Northeast 370 426 11,100 -789 Descending FlightAware ADS-B
Sun 10:45:41 AM 41.3730 -88.6090 43° Northeast 370 426 11,000 -86 Descending FlightAware ADS-B
Sun 10:46:12 AM 41.4120 -88.5620 42° Northeast 368 423 11,000  Level FlightAware ADS-B
Sun 10:46:49 AM 41.4600 -88.5060 41° Northeast 368 423 11,000 -174 Level FlightAware ADS-B
Sun 10:47:21 AM 41.5000 -88.4570 43° Northeast 370 426 10,800 -716 Descending FlightAware ADS-B
Sun 10:47:56 AM 41.5450 -88.4040 41° Northeast 363 418 10,200 -658 Descending FlightAware ADS-B
Sun 10:48:34 AM 41.5920 -88.3480 42° Northeast 358 412 10,000 -162 Descending FlightAware ADS-B
Sun 10:49:10 AM 41.6360 -88.2960 41° Northeast 360 414 10,000  Level FlightAware ADS-B
Sun 10:49:46 AM 41.6810 -88.2420 42° Northeast 360 414 10,000 88 Level FlightAware ADS-B
Sun 10:50:18 AM 41.7220 -88.1940 41° Northeast 361 415 10,100  Climbing FlightAware ADS-B
Sun 10:50:53 AM 41.7650 -88.1420 42° Northeast 356 410 10,000 -86 Descending FlightAware ADS-B
Sun 10:51:28 AM 41.8040 -88.0950 42° Northeast 315 362 10,000 -414 Level FlightAware ADS-B
Sun 10:51:51 AM 41.8290 -88.0630 44° Northeast 304 350 9,600 -1,059 Descending FlightAware ADS-B
Sun 10:52:02 AM 41.8370 -88.0480 54° Northeast 305 351 9,400 -1,200 Descending FlightAware ADS-B
Sun 10:52:11 AM 41.8430 -88.0310 65° Northeast 305 351 9,200 -1,091 Descending FlightAware ADS-B
Sun 10:52:24 AM 41.8480 -88.0070 74° East 305 351 9,000 -1,000 Descending FlightAware ADS-B
Sun 10:52:41 AM 41.8560 -87.9730 72° East 298 343 8,700 -977 Descending FlightAware ADS-B
Sun 10:53:07 AM 41.8610 -87.9320 81° East 292 336 8,300 -1,171 Descending FlightAware ADS-B
Sun 10:53:22 AM 41.8660 -87.9040 77° East 293 337 7,900 -1,543 Descending FlightAware ADS-B
Sun 10:53:42 AM 41.8720 -87.8700 77° East 293 337 7,400 -1,500 Descending FlightAware ADS-B
Sun 10:54:02 AM 41.8790 -87.8350 75° East 291 335 6,900 -1,297 Descending FlightAware ADS-B
Sun 10:54:19 AM 41.8830 -87.8040 80° East 290 334 6,600 -1,200 Descending FlightAware ADS-B
Sun 10:54:37 AM 41.8840 -87.7740 87° East 287 330 6,200 -1,263 Descending FlightAware ADS-B
Sun 10:54:57 AM 41.8840 -87.7380 90° East 284 327 5,800 -1,021 Descending FlightAware ADS-B
Sun 10:55:24 AM 41.8960 -87.6950 69° East 267 307 5,400 -1,135 Descending FlightAware ADS-B
Sun 10:55:34 AM 41.9050 -87.6880 30° Northeast 256 295 5,100 -2,000 Descending FlightAware ADS-B
Sun 10:55:42 AM 41.9150 -87.6850 13° North 250 288 4,800 -1,875 Descending FlightAware ADS-B
Sun 10:56:06 AM 41.9370 -87.7000 333° Northwest 211 243 4,100 -1,565 Descending FlightAware ADS-B
Sun 10:56:28 AM 41.9480 -87.7220 304° West 187 215 3,600 -1,467 Descending FlightAware ADS-B
Sun 10:56:51 AM 41.9580 -87.7430 303° West 172 198 3,000 -1,364 Descending FlightAware ADS-B
Sun 10:57:12 AM 41.9650 -87.7620 296° West 158 182 2,600 -1,000 Descending FlightAware ADS-B
Sun 10:57:21 AM 41.9650 -87.7710 270° West 155 178 2,500 -857 Descending FlightAware ADS-B
Sun 10:57:40 AM 41.9660 -87.7900 274° West 151 174 2,200 -857 Descending FlightAware ADS-B
Sun 10:57:56 AM 41.9660 -87.8030 270° West 139 160 2,000 -737 Descending FlightAware ADS-B
Sun 10:58:37 AM 41.9660 -87.8370 270° West 135 155 1,500 -750 Descending FlightAware ADS-B
Sun 10:58:52 AM 41.9660 -87.8500 270° West 138 159 1,300 -706 Descending FlightAware ADS-B
Sun 10:59:11 AM 41.9660 -87.8670 270° West 141 162 1,100 -652 Descending FlightAware ADS-B
Sun 10:59:38 AM 41.9660 -87.8900 270° West 140 161 800 -667 Descending FlightAware ADS-B

Login

Don't have an account? Register now (free) for customized features, flight alerts, and more!